Time,TemperatureF,DewpointF,PressureIn,WindDirection,WindDirectionDegrees,WindSpeedMPH,WindSpeedGustMPH,Humidity,HourlyPrecipIn,Conditions,Clouds,dailyrainin,SoftwareType,DateUTC
2013-04-29 00:13:00,52.9,52.6,29.76,NNE,22,0.0,-999.0,99,-99.99,,,0.01,Acu-Link.com,2013-04-29 04:13:00,
2013-04-29 00:28:00,52.7,52.4,29.76,NNE,22,0.0,-999.0,99,-99.99,,,0.01,Acu-Link.com,2013-04-29 04:28:00,
2013-04-29 00:43:00,52.7,52.4,29.76,NNE,22,0.0,-999.0,99,-99.99,,,0.01,Acu-Link.com,2013-04-29 04:43:00,
2013-04-29 00:58:00,52.7,52.4,29.75,NNE,22,0.0,-999.0,99,-99.99,,,0.01,Acu-Link.com,2013-04-29 04:58:00,
2013-04-29 01:13:00,52.7,52.4,29.76,NNE,22,0.0,-999.0,99,-99.99,,,0.01,Acu-Link.com,2013-04-29 05:13:00,
2013-04-29 01:28:00,52.7,52.4,29.76,NNE,22,0.0,-999.0,99,-99.99,,,0.02,Acu-Link.com,2013-04-29 05:28:00,
2013-04-29 01:43:00,52.5,52.2,29.76,NNE,22,0.0,-999.0,99,-99.99,,,0.02,Acu-Link.com,2013-04-29 05:43:00,
2013-04-29 01:58:00,52.5,52.2,29.76,NNE,22,0.0,-999.0,99,-99.99,,,0.02,Acu-Link.com,2013-04-29 05:58:00,
2013-04-29 02:13:00,52.5,52.2,29.76,NNE,22,0.0,-999.0,99,-99.99,,,0.02,Acu-Link.com,2013-04-29 06:13:00,
2013-04-29 02:29:00,52.5,52.2,29.76,NNE,22,0.0,-999.0,99,-99.99,,,0.02,Acu-Link.com,2013-04-29 06:29:00,
2013-04-29 02:59:00,52.5,52.2,29.76,NNE,22,1.7,-999.0,99,-99.99,,,0.02,Acu-Link.com,2013-04-29 06:59:00,
2013-04-29 03:14:00,52.5,52.2,29.76,NNE,22,0.0,-999.0,99,-99.99,,,0.02,Acu-Link.com,2013-04-29 07:14:00,
2013-04-29 03:29:00,52.5,52.2,29.76,NNE,22,2.2,-999.0,99,-99.99,,,0.02,Acu-Link.com,2013-04-29 07:29:00,
2013-04-29 03:44:00,52.5,52.2,29.76,NNE,22,0.0,-999.0,99,-99.99,,,0.02,Acu-Link.com,2013-04-29 07:44:00,
2013-04-29 03:59:00,52.5,52.2,29.77,NNE,22,0.0,-999.0,99,-99.99,,,0.02,Acu-Link.com,2013-04-29 07:59:00,
2013-04-29 04:15:00,52.5,52.2,29.77,NNE,22,0.0,-999.0,99,-99.99,,,0.02,Acu-Link.com,2013-04-29 08:15:00,
2013-04-29 04:30:00,52.5,52.2,29.77,NNE,22,0.0,-999.0,99,-99.99,,,0.02,Acu-Link.com,2013-04-29 08:30:00,
2013-04-29 04:45:00,52.5,52.2,29.77,NNE,22,2.2,-999.0,99,-99.99,,,0.02,Acu-Link.com,2013-04-29 08:45:00,
2013-04-29 05:00:00,52.5,52.2,29.77,West,270,1.1,-999.0,99,-99.99,,,0.02,Acu-Link.com,2013-04-29 09:00:00,
2013-04-29 05:15:00,52.5,52.2,29.78,WNW,292,3.7,-999.0,99,-99.99,,,0.02,Acu-Link.com,2013-04-29 09:15:00,
2013-04-29 05:30:00,52.5,52.2,29.78,West,270,2.2,-999.0,99,-99.99,,,0.02,Acu-Link.com,2013-04-29 09:30:00,
2013-04-29 05:46:00,52.5,52.2,29.78,West,270,2.7,-999.0,99,-99.99,,,0.02,Acu-Link.com,2013-04-29 09:46:00,
2013-04-29 06:01:00,52.5,52.2,29.79,WNW,292,2.2,-999.0,99,-99.99,,,0.02,Acu-Link.com,2013-04-29 10:01:00,
2013-04-29 06:16:00,52.5,52.2,29.79,NW,315,2.7,-999.0,99,-99.99,,,0.02,Acu-Link.com,2013-04-29 10:16:00,
2013-04-29 06:31:00,52.3,52.0,29.80,WNW,292,2.7,-999.0,99,-99.99,,,0.02,Acu-Link.com,2013-04-29 10:31:00,
2013-04-29 06:46:00,52.3,52.0,29.80,WNW,292,2.2,-999.0,99,-99.99,,,0.02,Acu-Link.com,2013-04-29 10:46:00,
2013-04-29 07:01:00,52.3,52.0,29.81,West,270,0.0,-999.0,99,-99.99,,,0.02,Acu-Link.com,2013-04-29 11:01:00,
2013-04-29 07:16:00,52.3,52.0,29.81,West,270,2.7,-999.0,99,-99.99,,,0.02,Acu-Link.com,2013-04-29 11:16:00,
2013-04-29 07:31:00,52.3,52.0,29.81,WNW,292,1.1,-999.0,99,-99.99,,,0.02,Acu-Link.com,2013-04-29 11:31:00,
2013-04-29 07:46:00,52.5,52.2,29.82,WSW,247,2.2,-999.0,99,-99.99,,,0.02,Acu-Link.com,2013-04-29 11:46:00,
2013-04-29 08:02:00,52.9,52.6,29.82,West,270,1.7,-999.0,99,-99.99,,,0.02,Acu-Link.com,2013-04-29 12:02:00,
2013-04-29 08:17:00,53.8,53.5,29.83,West,270,2.2,-999.0,99,-99.99,,,0.02,Acu-Link.com,2013-04-29 12:17:00,
2013-04-29 08:32:00,54.3,54.0,29.82,West,270,1.1,-999.0,99,-99.99,,,0.02,Acu-Link.com,2013-04-29 12:32:00,
2013-04-29 08:48:00,55.2,54.6,29.84,SSE,157,2.2,-999.0,98,-99.99,,,0.02,Acu-Link.com,2013-04-29 12:48:00,
2013-04-29 09:03:00,55.9,54.8,29.83,West,270,2.2,-999.0,96,-99.99,,,0.02,Acu-Link.com,2013-04-29 13:03:00,
2013-04-29 09:18:00,56.3,54.6,29.84,ENE,67,3.2,-999.0,94,-99.99,,,0.02,Acu-Link.com,2013-04-29 13:18:00,
2013-04-29 09:33:00,55.8,54.1,29.84,West,270,2.7,-999.0,94,-99.99,,,0.02,Acu-Link.com,2013-04-29 13:33:00,
2013-04-29 09:48:00,55.8,53.8,29.84,WNW,292,2.7,-999.0,93,-99.99,,,0.02,Acu-Link.com,2013-04-29 13:48:00,
2013-04-29 10:03:00,56.1,53.5,29.84,WNW,292,2.2,-999.0,91,-99.99,,,0.02,Acu-Link.com,2013-04-29 14:03:00,
2013-04-29 10:18:00,56.8,54.2,29.85,West,270,2.7,-999.0,91,-99.99,,,0.02,Acu-Link.com,2013-04-29 14:18:00,
2013-04-29 10:33:00,57.4,53.9,29.85,WSW,247,1.7,-999.0,88,-99.99,,,0.02,Acu-Link.com,2013-04-29 14:33:00,
2013-04-29 10:48:00,57.6,53.8,29.85,WNW,292,2.2,-999.0,87,-99.99,,,0.02,Acu-Link.com,2013-04-29 14:48:00,
2013-04-29 11:03:00,58.8,54.3,29.85,ESE,112,3.2,-999.0,85,-99.99,,,0.02,Acu-Link.com,2013-04-29 15:03:00,
2013-04-29 11:19:00,57.7,53.2,29.85,West,270,2.7,-999.0,85,-99.99,,,0.02,Acu-Link.com,2013-04-29 15:19:00,
2013-04-29 11:34:00,59.0,54.2,29.85,West,270,2.7,-999.0,84,-99.99,,,0.02,Acu-Link.com,2013-04-29 15:34:00,
2013-04-29 11:49:00,59.0,53.5,29.85,North,0,2.2,-999.0,82,-99.99,,,0.02,Acu-Link.com,2013-04-29 15:49:00,
2013-04-29 12:04:00,59.2,53.7,29.84,ESE,112,1.7,-999.0,82,-99.99,,,0.02,Acu-Link.com,2013-04-29 16:04:00,
2013-04-29 12:19:00,62.4,54.7,29.85,South,180,2.2,-999.0,76,-99.99,,,0.03,Acu-Link.com,2013-04-29 16:19:00,
2013-04-29 12:34:00,62.6,55.3,29.84,NE,45,2.2,-999.0,77,-99.99,,,0.03,Acu-Link.com,2013-04-29 16:34:00,
2013-04-29 12:49:00,61.0,54.1,29.84,East,90,2.7,-999.0,78,-99.99,,,0.03,Acu-Link.com,2013-04-29 16:49:00,
2013-04-29 13:04:00,63.1,54.7,29.82,NE,45,3.2,-999.0,74,-99.99,,,0.03,Acu-Link.com,2013-04-29 17:04:00,
2013-04-29 13:19:00,64.2,55.4,29.82,SSE,157,3.7,-999.0,73,-99.99,,,0.03,Acu-Link.com,2013-04-29 17:19:00,
2013-04-29 13:40:00,64.2,54.6,29.82,ENE,67,2.7,-999.0,71,-99.99,,,0.03,Acu-Link.com,2013-04-29 17:40:00,
2013-04-29 13:55:00,67.3,56.4,29.82,ESE,112,3.2,-999.0,68,-99.99,,,0.03,Acu-Link.com,2013-04-29 17:55:00,
2013-04-29 14:10:00,70.0,56.8,29.81,South,180,4.7,-999.0,63,-99.99,,,0.03,Acu-Link.com,2013-04-29 18:10:00,
2013-04-29 14:25:00,69.8,55.3,29.81,SE,135,4.7,-999.0,60,-99.99,,,0.03,Acu-Link.com,2013-04-29 18:25:00,
2013-04-29 14:40:00,70.7,55.7,29.81,ESE,112,2.2,-999.0,59,-99.99,,,0.03,Acu-Link.com,2013-04-29 18:40:00,
2013-04-29 14:55:00,67.5,54.5,29.81,NNE,22,1.1,-999.0,63,-99.99,,,0.03,Acu-Link.com,2013-04-29 18:55:00,
2013-04-29 15:10:00,70.0,54.5,29.81,ESE,112,2.7,-999.0,58,-99.99,,,0.03,Acu-Link.com,2013-04-29 19:10:00,
2013-04-29 15:25:00,67.6,53.7,29.80,East,90,2.2,-999.0,61,-99.99,,,0.03,Acu-Link.com,2013-04-29 19:25:00,
2013-04-29 15:40:00,69.8,54.8,29.81,ESE,112,4.2,-999.0,59,-99.99,,,0.03,Acu-Link.com,2013-04-29 19:40:00,
2013-04-29 15:56:00,69.6,53.2,29.80,ESE,112,1.7,-999.0,56,-99.99,,,0.03,Acu-Link.com,2013-04-29 19:56:00,
2013-04-29 16:11:00,70.2,54.2,29.80,South,180,4.2,-999.0,57,-99.99,,,0.03,Acu-Link.com,2013-04-29 20:11:00,
2013-04-29 16:26:00,70.0,54.1,29.79,SSE,157,3.2,-999.0,57,-99.99,,,0.03,Acu-Link.com,2013-04-29 20:26:00,
2013-04-29 16:41:00,70.7,54.2,29.79,SSE,157,0.0,-999.0,56,-99.99,,,0.03,Acu-Link.com,2013-04-29 20:41:00,
2013-04-29 16:56:00,70.5,53.5,29.78,South,180,4.7,-999.0,55,-99.99,,,0.03,Acu-Link.com,2013-04-29 20:56:00,
2013-04-29 17:11:00,70.0,53.1,29.78,NNE,22,2.2,-999.0,55,-99.99,,,0.03,Acu-Link.com,2013-04-29 21:11:00,
2013-04-29 17:26:00,72.0,52.9,29.78,ESE,112,3.7,-999.0,51,-99.99,,,0.03,Acu-Link.com,2013-04-29 21:26:00,
2013-04-29 17:41:00,70.3,52.9,29.78,South,180,3.2,-999.0,54,-99.99,,,0.03,Acu-Link.com,2013-04-29 21:41:00,
2013-04-29 17:56:00,71.4,54.4,29.79,NNE,22,2.2,-999.0,55,-99.99,,,0.03,Acu-Link.com,2013-04-29 21:56:00,
2013-04-29 18:12:00,72.7,54.6,29.78,South,180,2.2,-999.0,53,-99.99,,,0.03,Acu-Link.com,2013-04-29 22:12:00,
2013-04-29 18:27:00,72.9,54.8,29.78,SSE,157,0.0,-999.0,53,-99.99,,,0.03,Acu-Link.com,2013-04-29 22:27:00,
2013-04-29 18:42:00,70.3,53.9,29.78,South,180,2.7,-999.0,56,-99.99,,,0.03,Acu-Link.com,2013-04-29 22:42:00,
2013-04-29 18:57:00,70.7,53.7,29.79,ESE,112,1.7,-999.0,55,-99.99,,,0.03,Acu-Link.com,2013-04-29 22:57:00,
2013-04-29 19:12:00,69.3,53.9,29.79,SE,135,0.0,-999.0,58,-99.99,,,0.03,Acu-Link.com,2013-04-29 23:12:00,
2013-04-29 19:27:00,68.5,54.1,29.79,South,180,0.0,-999.0,60,-99.99,,,0.03,Acu-Link.com,2013-04-29 23:27:00,
2013-04-29 19:42:00,68.0,53.6,29.79,South,180,0.0,-999.0,60,-99.99,,,0.03,Acu-Link.com,2013-04-29 23:42:00,
2013-04-29 19:57:00,67.5,54.0,29.79,South,180,0.0,-999.0,62,-99.99,,,0.03,Acu-Link.com,2013-04-29 23:57:00,
2013-04-29 20:12:00,66.0,53.9,29.79,South,180,0.0,-999.0,65,-99.99,,,0.03,Acu-Link.com,2013-04-30 00:12:00,
2013-04-29 20:27:00,64.8,53.2,29.79,West,270,0.0,-999.0,66,-99.99,,,0.03,Acu-Link.com,2013-04-30 00:27:00,
2013-04-29 20:43:00,63.7,52.9,29.79,South,180,0.0,-999.0,68,-99.99,,,0.03,Acu-Link.com,2013-04-30 00:43:00,
2013-04-29 20:58:00,62.4,52.9,29.79,South,180,0.0,-999.0,71,-99.99,,,0.03,Acu-Link.com,2013-04-30 00:58:00,
2013-04-29 21:13:00,61.5,52.8,29.79,South,180,1.7,-999.0,73,-99.99,,,0.03,Acu-Link.com,2013-04-30 01:13:00,
2013-04-29 21:28:00,61.0,52.7,29.80,South,180,1.7,-999.0,74,-99.99,,,0.03,Acu-Link.com,2013-04-30 01:28:00,
2013-04-29 21:43:00,61.0,53.4,29.80,NNE,22,2.2,-999.0,76,-99.99,,,0.03,Acu-Link.com,2013-04-30 01:43:00,
2013-04-29 21:58:00,61.0,54.1,29.80,SSE,157,1.7,-999.0,78,-99.99,,,0.03,Acu-Link.com,2013-04-30 01:58:00,
2013-04-29 22:13:00,60.6,54.4,29.81,South,180,3.7,-999.0,80,-99.99,,,0.03,Acu-Link.com,2013-04-30 02:13:00,
2013-04-29 22:28:00,60.4,54.5,29.81,NNE,22,2.2,-999.0,81,-99.99,,,0.03,Acu-Link.com,2013-04-30 02:28:00,
2013-04-29 22:43:00,59.9,54.1,29.81,South,180,0.0,-999.0,81,-99.99,,,0.03,Acu-Link.com,2013-04-30 02:43:00,
2013-04-29 22:59:00,59.7,54.5,29.81,ENE,67,0.0,-999.0,83,-99.99,,,0.03,Acu-Link.com,2013-04-30 02:59:00,
2013-04-29 23:14:00,59.4,54.6,29.81,SE,135,2.7,-999.0,84,-99.99,,,0.03,Acu-Link.com,2013-04-30 03:14:00,
2013-04-29 23:29:00,58.8,54.0,29.81,South,180,2.2,-999.0,84,-99.99,,,0.03,Acu-Link.com,2013-04-30 03:29:00,
2013-04-29 23:44:00,59.0,54.5,29.82,South,180,1.7,-999.0,85,-99.99,,,0.03,Acu-Link.com,2013-04-30 03:44:00,
2013-04-29 23:59:00,59.0,54.5,29.82,NNE,22,1.7,-999.0,85,-99.99,,,0.03,Acu-Link.com,2013-04-30 03:59:00,